Lovilia, IA (50150)

7:38 AM CST on December 21, 2014 (GMT -0600)
IADOT West of Eddyville (HW 137) | Change Station
CLOSE
Current Station
Personal Weather Station
Location: Eddyville, IA
Elevation: 799 ft
Nearby Weather Stations

Elev 799 ft 41.15 °N, 92.64 °W | Updated 34 minutes ago

Overcast
Overcast
38 °F
Feels Like 33 °F
N
7
Wind Variable Wind from South
Gusts 13.0 mph

Today
High -- | Low -- °F
--% Chance of Precip.
Yesterday
High -- | Low -- °F
Precip. -- in
7:33 AM 4:46 PM
Waning Crescent, 0% visible
Pressure 30.01 in
Visibility 8.0 miles
Clouds Overcast 1200 ft
Windchill 33 °F
Dew Point 37 °F
Humidity 95%
Rainfall -999.00 in
Snow Depth Not available.
UV 0 out of 12
Pollen .10 out of 12
Air Quality Not available.
Flu Activity Not available.
METAR KOXV 211315Z AUTO 18012KT 8SM OVC012 03/02 A3001 RMK AO2

More Conditions Fewer Conditions

Pressure 30.01 in
Visibility 8.0 miles
Clouds Overcast 1200 ft
Windchill 33 °F
Dew Point 37 °F
Humidity 95%
Rainfall -999.00 in
Snow Depth Not available.
UV 0 out of 12
Pollen .10 out of 12
Air Quality Not available.
Flu Activity Not available.
METAR KOXV 211315Z AUTO 18012KT 8SM OVC012 03/02 A3001 RMK AO2

More Conditions Fewer Conditions

10-Day Weather Forecast

Almanac

Astronomy

Dec. 21, 2014 Rise Set
Actual Time
Civil Twilight
Nautical Twilight
Astronomical Twilight
Moon
Length of Visible Light
Length of Day
Tomorrow will be .
, % of the Moon is Illuminated

Today's Extremes

State Highs State Lows

Community

WunderPhotos

Upload Photos

1,779,386 photos uploaded!

WunderBlogs® & News

Nearby

Air Quality

  Air Quality AQ Index Pollutant
Not available.

Snow Depth

Station Depth Elevation

Earthquake Activity

City Distance Mag. Time & Date
Minimum magnitude displayed is 2.5.

Coastal Water Temperatures

Place Temperature

Nearby Weather Stations